createdAt,value
2019-05-12T00:00:32.239Z,1016.00
2019-05-12T00:01:32.227Z,1015.99
2019-05-12T00:02:32.221Z,1016.02
2019-05-12T00:03:32.218Z,1015.99
2019-05-12T00:04:32.208Z,1015.98
2019-05-12T00:05:32.202Z,1015.98
2019-05-12T00:06:32.198Z,1015.97
2019-05-12T00:07:32.190Z,1015.98
2019-05-12T00:08:32.185Z,1016.00
2019-05-12T00:09:32.179Z,1016.01
2019-05-12T00:10:32.170Z,1016.02
2019-05-12T00:11:32.171Z,1016.04
2019-05-12T00:12:32.160Z,1016.06
2019-05-12T00:13:32.163Z,1016.06
2019-05-12T00:14:32.146Z,1016.05
2019-05-12T00:15:32.141Z,1016.08
2019-05-12T00:16:32.135Z,1016.11
2019-05-12T00:17:32.129Z,1016.07
2019-05-12T00:18:32.123Z,1016.13
2019-05-12T00:19:32.118Z,1016.13
2019-05-12T00:20:32.112Z,1016.17
2019-05-12T00:21:32.112Z,1016.19
2019-05-12T00:22:32.124Z,1016.18
2019-05-12T00:23:32.097Z,1016.20
2019-05-12T00:24:32.085Z,1016.21
2019-05-12T00:25:32.084Z,1016.25
2019-05-12T00:26:32.072Z,1016.22
2019-05-12T00:27:32.068Z,1016.26
2019-05-12T00:28:32.062Z,1016.24
2019-05-12T00:29:32.056Z,1016.27
2019-05-12T00:30:32.049Z,1016.30
2019-05-12T00:31:32.044Z,1016.31
2019-05-12T00:32:32.038Z,1016.30
2019-05-12T00:33:32.033Z,1016.36
2019-05-12T00:34:32.024Z,1016.34
2019-05-12T00:35:32.020Z,1016.35
2019-05-12T00:36:32.013Z,1016.35
2019-05-12T00:37:32.008Z,1016.37
2019-05-12T00:38:32.000Z,1016.39
2019-05-12T00:39:31.994Z,1016.38
2019-05-12T00:40:31.988Z,1016.40
2019-05-12T00:41:31.983Z,1016.37
2019-05-12T00:42:31.989Z,1016.36
2019-05-12T00:43:31.972Z,1016.38
2019-05-12T00:44:31.964Z,1016.44
2019-05-12T00:45:31.958Z,1016.40
2019-05-12T00:46:31.956Z,1016.46
2019-05-12T00:47:31.947Z,1016.46
2019-05-12T00:48:31.940Z,1016.46
2019-05-12T00:49:31.940Z,1016.48
2019-05-12T00:50:31.934Z,1016.46
2019-05-12T00:51:31.921Z,1016.49
2019-05-12T00:52:31.915Z,1016.53
2019-05-12T00:53:39.724Z,1016.53
2019-05-12T00:54:31.908Z,1016.51
2019-05-12T00:55:31.896Z,1016.56
2019-05-12T00:56:31.893Z,1016.53
2019-05-12T00:57:31.885Z,1016.57
2019-05-12T00:58:31.879Z,1016.55
2019-05-12T00:59:31.873Z,1016.59
2019-05-12T01:00:31.869Z,1016.61
2019-05-12T01:01:31.866Z,1016.65
2019-05-12T01:02:31.858Z,1016.64
2019-05-12T01:03:31.850Z,1016.63
2019-05-12T01:04:31.842Z,1016.65
2019-05-12T01:05:31.840Z,1016.67
2019-05-12T01:06:31.829Z,1016.69
2019-05-12T01:07:31.823Z,1016.69
2019-05-12T01:08:31.819Z,1016.71
2019-05-12T01:09:31.813Z,1016.72
2019-05-12T01:10:31.804Z,1016.71
2019-05-12T01:11:31.804Z,1016.74
2019-05-12T01:12:31.796Z,1016.75
2019-05-12T01:13:31.789Z,1016.75
2019-05-12T01:14:31.786Z,1016.81
2019-05-12T01:15:31.783Z,1016.83
2019-05-12T01:16:31.769Z,1016.85
2019-05-12T01:17:31.763Z,1016.83
2019-05-12T01:18:31.756Z,1016.84
2019-05-12T01:19:31.754Z,1016.84
2019-05-12T01:20:31.742Z,1016.87
2019-05-12T01:21:31.737Z,1016.88
2019-05-12T01:22:31.732Z,1016.83
2019-05-12T01:23:31.723Z,1016.87
2019-05-12T01:24:31.720Z,1016.86
2019-05-12T01:25:31.712Z,1016.91
2019-05-12T01:26:31.707Z,1016.88
2019-05-12T01:27:31.700Z,1016.91
2019-05-12T01:28:31.694Z,1016.92
2019-05-12T01:29:31.686Z,1016.89
2019-05-12T01:30:31.682Z,1016.90
2019-05-12T01:31:31.674Z,1016.93
2019-05-12T01:32:31.667Z,1016.98
2019-05-12T01:33:31.661Z,1016.97
2019-05-12T01:34:31.678Z,1016.95
2019-05-12T01:35:31.649Z,1016.98
2019-05-12T01:36:31.643Z,1016.99
2019-05-12T01:37:31.636Z,1016.98
2019-05-12T01:38:31.628Z,1017.01
2019-05-12T01:39:31.623Z,1017.03
2019-05-12T01:40:31.616Z,1017.02
2019-05-12T01:41:31.611Z,1017.01
2019-05-12T01:42:31.607Z,1017.06
2019-05-12T01:43:31.597Z,1017.05
2019-05-12T01:44:31.589Z,1017.07
2019-05-12T01:45:31.583Z,1017.13
2019-05-12T01:46:31.579Z,1017.11
2019-05-12T01:47:31.575Z,1017.16
2019-05-12T01:48:31.564Z,1017.18
2019-05-12T01:49:31.562Z,1017.19
2019-05-12T01:50:31.552Z,1017.20
2019-05-12T01:51:31.546Z,1017.26
2019-05-12T01:52:31.541Z,1017.24
2019-05-12T01:53:31.539Z,1017.22
2019-05-12T01:54:31.525Z,1017.26
2019-05-12T01:55:31.519Z,1017.30
2019-05-12T01:56:31.513Z,1017.35
2019-05-12T01:57:31.509Z,1017.36
2019-05-12T01:58:31.501Z,1017.38
2019-05-12T01:59:31.494Z,1017.38
2019-05-12T02:00:31.487Z,1017.38
2019-05-12T02:01:31.480Z,1017.40
2019-05-12T02:02:31.475Z,1017.39
2019-05-12T02:03:31.467Z,1017.42
2019-05-12T02:04:31.462Z,1017.45
2019-05-12T02:05:31.456Z,1017.43
2019-05-12T02:06:31.446Z,1017.44
2019-05-12T02:07:31.447Z,1017.45
2019-05-12T02:08:31.436Z,1017.49
2019-05-12T02:09:31.431Z,1017.50
2019-05-12T02:10:31.425Z,1017.51
2019-05-12T02:11:31.414Z,1017.54
2019-05-12T02:12:31.409Z,1017.58
2019-05-12T02:13:31.404Z,1017.60
2019-05-12T02:14:31.394Z,1017.62
2019-05-12T02:15:31.392Z,1017.64
2019-05-12T02:16:31.385Z,1017.64
2019-05-12T02:17:31.377Z,1017.65
2019-05-12T02:18:31.376Z,1017.65
2019-05-12T02:19:31.362Z,1017.65
2019-05-12T02:20:31.358Z,1017.70
2019-05-12T02:21:31.352Z,1017.68
2019-05-12T02:22:31.368Z,1017.67
2019-05-12T02:23:31.336Z,1017.70
2019-05-12T02:24:31.330Z,1017.72
2019-05-12T02:25:31.323Z,1017.73
2019-05-12T02:26:31.315Z,1017.72
2019-05-12T02:27:31.310Z,1017.75
2019-05-12T02:28:31.307Z,1017.75
2019-05-12T02:29:31.300Z,1017.73
2019-05-12T02:30:31.293Z,1017.75
2019-05-12T02:31:31.284Z,1017.75
2019-05-12T02:32:43.489Z,1017.76
2019-05-12T02:33:31.273Z,1017.76
2019-05-12T02:34:31.265Z,1017.79
2019-05-12T02:35:31.259Z,1017.77
2019-05-12T02:36:33.989Z,1017.80
2019-05-12T02:37:31.247Z,1017.79
2019-05-12T02:38:32.956Z,1017.82
2019-05-12T02:39:31.232Z,1017.81
2019-05-12T02:40:34.344Z,1017.81
2019-05-12T02:41:34.336Z,1017.83
2019-05-12T02:42:34.224Z,1017.79
2019-05-12T02:43:31.207Z,1017.81
2019-05-12T02:44:31.202Z,1017.75
2019-05-12T02:45:31.189Z,1017.81
2019-05-12T02:46:34.583Z,1017.81
2019-05-12T02:47:34.418Z,1017.77
2019-05-12T02:48:31.174Z,1017.81
2019-05-12T02:49:34.541Z,1017.81
2019-05-12T02:50:34.881Z,1017.80
2019-05-12T02:51:31.154Z,1017.86
2019-05-12T02:52:31.157Z,1017.83
2019-05-12T02:53:31.142Z,1017.86
2019-05-12T02:54:50.532Z,1017.88
2019-05-12T02:55:34.464Z,1017.91
2019-05-12T02:56:31.121Z,1017.89
2019-05-12T02:57:34.208Z,1017.92
2019-05-12T02:58:33.796Z,1017.96
2019-05-12T02:59:34.450Z,1017.94
2019-05-12T03:00:31.092Z,1017.97
2019-05-12T03:01:31.087Z,1018.01
2019-05-12T03:02:31.078Z,1018.05
2019-05-12T03:03:31.074Z,1018.06
2019-05-12T03:04:31.067Z,1018.06
2019-05-12T03:05:31.063Z,1018.11
2019-05-12T03:06:31.062Z,1018.12
2019-05-12T03:07:34.411Z,1018.10
2019-05-12T03:08:31.040Z,1018.14
2019-05-12T03:09:34.696Z,1018.17
2019-05-12T03:10:31.017Z,1018.14
2019-05-12T03:11:31.019Z,1018.16
2019-05-12T03:12:34.255Z,1018.17
2019-05-12T03:13:34.386Z,1018.20
2019-05-12T03:14:35.782Z,1018.22
2019-05-12T03:15:30.993Z,1018.17
2019-05-12T03:16:30.987Z,1018.26
2019-05-12T03:17:30.986Z,1018.28
2019-05-12T03:18:34.531Z,1018.30
2019-05-12T03:19:30.970Z,1018.34
2019-05-12T03:20:30.960Z,1018.33
2019-05-12T03:21:30.953Z,1018.32
2019-05-12T03:22:30.950Z,1018.32
2019-05-12T03:23:30.942Z,1018.35
2019-05-12T03:24:34.036Z,1018.34
2019-05-12T03:25:30.927Z,1018.38
2019-05-12T03:26:30.918Z,1018.38
2019-05-12T03:27:30.919Z,1018.37
2019-05-12T03:28:30.906Z,1018.37
2019-05-12T03:29:34.123Z,1018.41
2019-05-12T03:30:30.899Z,1018.43
2019-05-12T03:31:32.094Z,1018.39
2019-05-12T03:32:30.895Z,1018.45
2019-05-12T03:33:35.896Z,1018.46
2019-05-12T03:34:30.864Z,1018.46
2019-05-12T03:35:39.453Z,1018.45
2019-05-12T03:36:34.741Z,1018.48
2019-05-12T03:37:31.474Z,1018.48
2019-05-12T03:38:30.838Z,1018.50
2019-05-12T03:39:34.231Z,1018.50
2019-05-12T03:40:30.829Z,1018.51
2019-05-12T03:41:30.818Z,1018.48
2019-05-12T03:42:30.814Z,1018.53
2019-05-12T03:43:30.807Z,1018.52
2019-05-12T03:44:30.797Z,1018.53
2019-05-12T03:45:30.792Z,1018.60
2019-05-12T03:46:30.785Z,1018.58
2019-05-12T03:47:30.781Z,1018.63
2019-05-12T03:48:30.771Z,1018.69
2019-05-12T03:49:30.764Z,1018.68
2019-05-12T03:50:30.757Z,1018.68
2019-05-12T03:51:30.752Z,1018.73
2019-05-12T03:52:30.742Z,1018.70
2019-05-12T03:53:30.735Z,1018.69
2019-05-12T03:54:30.729Z,1018.71
2019-05-12T03:55:36.411Z,1018.74
2019-05-12T03:56:30.717Z,1018.74
2019-05-12T03:57:34.269Z,1018.76
2019-05-12T03:58:30.707Z,1018.74
2019-05-12T03:59:30.696Z,1018.76
2019-05-12T04:00:30.687Z,1018.73
2019-05-12T04:01:30.690Z,1018.74
2019-05-12T04:02:30.675Z,1018.74
2019-05-12T04:03:30.667Z,1018.75
2019-05-12T04:04:30.661Z,1018.76
2019-05-12T04:05:30.655Z,1018.84
2019-05-12T04:06:30.647Z,1018.81
2019-05-12T04:07:30.639Z,1018.85
2019-05-12T04:08:30.640Z,1018.86
2019-05-12T04:09:30.643Z,1018.88
2019-05-12T04:10:30.621Z,1018.89
2019-05-12T04:11:30.613Z,1018.88
2019-05-12T04:12:30.608Z,1018.91
2019-05-12T04:13:30.606Z,1018.86
2019-05-12T04:14:30.594Z,1018.95
2019-05-12T04:15:30.613Z,1018.94
2019-05-12T04:16:30.599Z,1019.04
2019-05-12T04:17:30.579Z,1019.00
2019-05-12T04:18:30.578Z,1019.04
2019-05-12T04:19:30.560Z,1019.04
2019-05-12T04:20:30.555Z,1019.02
2019-05-12T04:21:30.551Z,1019.06
2019-05-12T04:22:30.541Z,1019.12
2019-05-12T04:23:30.534Z,1019.14
2019-05-12T04:24:30.524Z,1019.15
2019-05-12T04:25:46.530Z,1019.16
2019-05-12T04:26:30.513Z,1019.16
2019-05-12T04:27:30.507Z,1019.24
2019-05-12T04:28:30.499Z,1019.24
2019-05-12T04:29:30.497Z,1019.26
2019-05-12T04:30:30.487Z,1019.31
2019-05-12T04:31:30.479Z,1019.30
2019-05-12T04:32:30.472Z,1019.34
2019-05-12T04:33:30.464Z,1019.35
2019-05-12T04:34:30.457Z,1019.39
2019-05-12T04:35:30.450Z,1019.37
2019-05-12T04:36:30.447Z,1019.43
2019-05-12T04:37:30.455Z,1019.46
2019-05-12T04:38:30.439Z,1019.49
2019-05-12T04:39:30.425Z,1019.50
2019-05-12T04:40:30.421Z,1019.50
2019-05-12T04:41:30.413Z,1019.50
2019-05-12T04:42:30.408Z,1019.55
2019-05-12T04:43:30.396Z,1019.56
2019-05-12T04:44:30.391Z,1019.55
2019-05-12T04:45:30.394Z,1019.61
2019-05-12T04:46:30.377Z,1019.58
2019-05-12T04:47:30.371Z,1019.64
2019-05-12T04:48:30.364Z,1019.65
2019-05-12T04:49:30.356Z,1019.64
2019-05-12T04:50:30.352Z,1019.67
2019-05-12T04:51:30.345Z,1019.70
2019-05-12T04:52:30.338Z,1019.72
2019-05-12T04:53:30.335Z,1019.75
2019-05-12T04:54:30.325Z,1019.81
2019-05-12T04:55:30.319Z,1019.83
2019-05-12T04:56:30.313Z,1019.87
2019-05-12T04:57:30.306Z,1019.89
2019-05-12T04:58:30.302Z,1019.93
2019-05-12T04:59:30.297Z,1019.95
2019-05-12T05:00:30.286Z,1019.96
2019-05-12T05:01:30.281Z,1019.97
2019-05-12T05:02:30.274Z,1019.98
2019-05-12T05:03:30.266Z,1019.98
2019-05-12T05:04:30.258Z,1020.04
2019-05-12T05:05:30.254Z,1020.04
2019-05-12T05:06:30.245Z,1020.07
2019-05-12T05:07:30.233Z,1020.05
2019-05-12T05:08:30.233Z,1020.06
2019-05-12T05:09:30.227Z,1020.10
2019-05-12T05:10:30.224Z,1020.11
2019-05-12T05:11:30.211Z,1020.08
2019-05-12T05:12:30.209Z,1020.16
2019-05-12T05:13:30.199Z,1020.10
2019-05-12T05:14:30.194Z,1020.02
2019-05-12T05:15:30.193Z,1020.09
2019-05-12T05:16:30.184Z,1020.10
2019-05-12T05:17:30.186Z,1020.13
2019-05-12T05:18:30.168Z,1020.16
2019-05-12T05:19:30.161Z,1020.17
2019-05-12T05:20:30.155Z,1020.22
2019-05-12T05:21:30.148Z,1020.24
2019-05-12T05:22:30.140Z,1020.28
2019-05-12T05:23:30.141Z,1020.31
2019-05-12T05:24:30.140Z,1020.31
2019-05-12T05:25:30.123Z,1020.36
2019-05-12T05:26:30.117Z,1020.38
2019-05-12T05:27:30.110Z,1020.46
2019-05-12T05:28:30.106Z,1020.47
2019-05-12T05:29:30.098Z,1020.49
2019-05-12T05:30:30.094Z,1020.53
2019-05-12T05:31:30.086Z,1020.58
2019-05-12T05:32:30.078Z,1020.63
2019-05-12T05:33:30.081Z,1020.65
2019-05-12T05:34:30.072Z,1020.66
2019-05-12T05:35:35.168Z,1020.70
2019-05-12T05:36:30.052Z,1020.73
2019-05-12T05:37:30.817Z,1020.78
2019-05-12T05:38:30.040Z,1020.79
2019-05-12T05:39:30.033Z,1020.81
2019-05-12T05:40:30.384Z,1020.84
2019-05-12T05:41:30.023Z,1020.83
2019-05-12T05:42:32.765Z,1020.80
2019-05-12T05:43:30.010Z,1020.84
2019-05-12T05:44:36.243Z,1020.84
2019-05-12T05:45:30.003Z,1020.87
2019-05-12T05:46:29.998Z,1020.84
2019-05-12T05:47:29.984Z,1020.88
2019-05-12T05:48:32.155Z,1020.84
2019-05-12T05:49:29.976Z,1020.90
2019-05-12T05:50:29.966Z,1020.86
2019-05-12T05:51:29.964Z,1020.89
2019-05-12T05:52:33.114Z,1020.85
2019-05-12T05:53:29.953Z,1020.85
2019-05-12T05:54:35.113Z,1020.94
2019-05-12T05:55:29.936Z,1020.95
2019-05-12T05:56:39.685Z,1020.97
2019-05-12T05:57:29.975Z,1021.03
2019-05-12T05:58:29.919Z,1021.06
2019-05-12T05:59:31.828Z,1021.09
2019-05-12T06:00:29.904Z,1021.17
2019-05-12T06:01:29.901Z,1021.15
2019-05-12T06:02:32.101Z,1021.17
2019-05-12T06:03:29.889Z,1021.20
2019-05-12T06:04:29.883Z,1021.22
2019-05-12T06:05:31.023Z,1021.21
2019-05-12T06:06:29.870Z,1021.17
2019-05-12T06:07:34.967Z,1021.25
2019-05-12T06:08:29.870Z,1021.28
2019-05-12T06:09:29.856Z,1021.29
2019-05-12T06:10:36.113Z,1021.24
2019-05-12T06:11:29.846Z,1021.25
2019-05-12T06:12:29.842Z,1021.24
2019-05-12T06:13:31.779Z,1021.28
2019-05-12T06:14:29.833Z,1021.28
2019-05-12T06:15:34.698Z,1021.36
2019-05-12T06:16:29.825Z,1021.32
2019-05-12T06:17:29.823Z,1021.35
2019-05-12T06:18:29.818Z,1021.37
2019-05-12T06:19:29.815Z,1021.36
2019-05-12T06:20:29.813Z,1021.37
2019-05-12T06:21:36.829Z,1021.39
2019-05-12T06:22:29.808Z,1021.36
2019-05-12T06:23:34.937Z,1021.39
2019-05-12T06:24:29.801Z,1021.33
2019-05-12T06:25:41.128Z,1021.39
2019-05-12T06:26:33.304Z,1021.40
2019-05-12T06:27:32.705Z,1021.40
2019-05-12T06:28:31.065Z,1021.39
2019-05-12T06:29:29.795Z,1021.40
2019-05-12T06:30:29.785Z,1021.42
2019-05-12T06:31:30.165Z,1021.48
2019-05-12T06:32:29.781Z,1021.49
2019-05-12T06:33:31.436Z,1021.52
2019-05-12T06:34:29.776Z,1021.50
2019-05-12T06:35:30.878Z,1021.53
2019-05-12T06:36:29.769Z,1021.55
2019-05-12T06:37:29.769Z,1021.55
2019-05-12T06:38:31.115Z,1021.54
2019-05-12T06:39:29.765Z,1021.56
2019-05-12T06:40:30.925Z,1021.61
2019-05-12T06:41:29.764Z,1021.56
2019-05-12T06:42:29.759Z,1021.60
2019-05-12T06:43:35.277Z,1021.62
2019-05-12T06:44:29.752Z,1021.58
2019-05-12T06:45:33.989Z,1021.58
2019-05-12T06:46:29.745Z,1021.53
2019-05-12T06:47:29.741Z,1021.64
2019-05-12T06:48:30.333Z,1021.62
2019-05-12T06:49:29.744Z,1021.62
2019-05-12T06:50:37.005Z,1021.69
2019-05-12T06:51:29.731Z,1021.71
2019-05-12T06:52:29.732Z,1021.63
2019-05-12T06:53:31.165Z,1021.66
2019-05-12T06:54:29.725Z,1021.69
2019-05-12T06:55:34.511Z,1021.69
2019-05-12T06:56:29.722Z,1021.71
2019-05-12T06:57:29.720Z,1021.70
2019-05-12T06:58:32.077Z,1021.70
2019-05-12T06:59:29.713Z,1021.74
2019-05-12T07:00:30.948Z,1021.72
2019-05-12T07:01:29.709Z,1021.75
2019-05-12T07:02:30.313Z,1021.76
2019-05-12T07:03:31.491Z,1021.71
2019-05-12T07:04:29.701Z,1021.74
2019-05-12T07:05:35.891Z,1021.75
2019-05-12T07:06:29.696Z,1021.78
2019-05-12T07:07:33.411Z,1021.76
2019-05-12T07:08:32.922Z,1021.79
2019-05-12T07:09:32.530Z,1021.80
2019-05-12T07:10:43.372Z,1021.83
2019-05-12T07:11:41.506Z,1021.79
2019-05-12T07:12:36.485Z,1021.85
2019-05-12T07:13:29.687Z,1021.88
2019-05-12T07:14:29.679Z,1021.82
2019-05-12T07:15:35.811Z,1021.83
2019-05-12T07:16:30.366Z,1021.85
2019-05-12T07:17:29.679Z,1021.88
2019-05-12T07:18:32.392Z,1021.87
2019-05-12T07:19:29.917Z,1021.89
2019-05-12T07:20:35.643Z,1021.87
2019-05-12T07:21:29.695Z,1021.92
2019-05-12T07:22:31.755Z,1021.92
2019-05-12T07:23:30.183Z,1021.93
2019-05-12T07:24:29.670Z,1021.92
2019-05-12T07:25:33.544Z,1021.92
2019-05-12T07:26:29.664Z,1021.93
2019-05-12T07:27:36.742Z,1021.93
2019-05-12T07:28:30.406Z,1021.93
2019-05-12T07:29:29.662Z,1021.94
2019-05-12T07:30:31.880Z,1021.94
2019-05-12T07:31:29.667Z,1021.98
2019-05-12T07:32:29.657Z,1022.01
2019-05-12T07:33:35.269Z,1022.05
2019-05-12T07:34:29.658Z,1022.05
2019-05-12T07:35:29.656Z,1022.06
2019-05-12T07:36:29.656Z,1022.06
2019-05-12T07:37:30.089Z,1022.10
2019-05-12T07:38:29.683Z,1022.09
2019-05-12T07:39:29.655Z,1022.07
2019-05-12T07:40:30.196Z,1022.08
2019-05-12T07:41:29.655Z,1022.12
2019-05-12T07:42:31.127Z,1022.03
2019-05-12T07:43:29.654Z,1022.05
2019-05-12T07:44:32.137Z,1022.09
2019-05-12T07:45:29.655Z,1022.05
2019-05-12T07:46:29.651Z,1022.14
2019-05-12T07:47:29.652Z,1022.04
2019-05-12T07:48:29.654Z,1022.14
2019-05-12T07:49:37.805Z,1022.13
2019-05-12T07:50:29.652Z,1022.11
2019-05-12T07:51:30.388Z,1022.13
2019-05-12T07:52:29.656Z,1022.11
2019-05-12T07:53:29.656Z,1022.12
2019-05-12T07:54:34.542Z,1022.14
2019-05-12T07:55:29.654Z,1022.18
2019-05-12T07:56:32.886Z,1022.14
2019-05-12T07:57:29.655Z,1022.24
2019-05-12T07:58:29.660Z,1022.22
2019-05-12T07:59:38.834Z,1022.23
2019-05-12T08:00:29.656Z,1022.26
2019-05-12T08:01:29.658Z,1022.19
2019-05-12T08:02:31.793Z,1022.29
2019-05-12T08:03:29.658Z,1022.33
2019-05-12T08:04:31.718Z,1022.36
2019-05-12T08:05:29.660Z,1022.34
2019-05-12T08:06:32.591Z,1022.41
2019-05-12T08:07:30.021Z,1022.41
2019-05-12T08:08:29.661Z,1022.37
2019-05-12T08:09:32.383Z,1022.43
2019-05-12T08:10:29.662Z,1022.45
2019-05-12T08:11:36.650Z,1022.46
2019-05-12T08:12:29.664Z,1022.47
2019-05-12T08:13:31.292Z,1022.49
2019-05-12T08:14:29.669Z,1022.48
2019-05-12T08:15:29.667Z,1022.55
2019-05-12T08:16:33.647Z,1022.47
2019-05-12T08:17:29.666Z,1022.53
2019-05-12T08:18:30.699Z,1022.55
2019-05-12T08:19:29.673Z,1022.51
2019-05-12T08:20:29.675Z,1022.50
2019-05-12T08:21:34.733Z,1022.54
2019-05-12T08:22:29.685Z,1022.68
2019-05-12T08:23:29.674Z,1022.55
2019-05-12T08:24:29.675Z,1022.44
2019-05-12T08:25:29.678Z,1022.52
2019-05-12T08:26:29.677Z,1022.57
2019-05-12T08:27:29.677Z,1022.45
2019-05-12T08:28:35.713Z,1022.57
2019-05-12T08:29:29.684Z,1022.54
2019-05-12T08:30:29.680Z,1022.61
2019-05-12T08:31:32.598Z,1022.61
2019-05-12T08:32:29.759Z,1022.66
2019-05-12T08:33:29.687Z,1022.64
2019-05-12T08:34:29.689Z,1022.62
2019-05-12T08:35:34.638Z,1022.59
2019-05-12T08:36:29.689Z,1022.59
2019-05-12T08:37:29.691Z,1022.56
2019-05-12T08:38:29.687Z,1022.51
2019-05-12T08:39:29.692Z,1022.59
2019-05-12T08:40:29.694Z,1022.56
2019-05-12T08:41:29.699Z,1022.59
2019-05-12T08:42:29.698Z,1022.65
2019-05-12T08:43:29.701Z,1022.72
2019-05-12T08:44:33.849Z,1022.81
2019-05-12T08:45:33.972Z,1022.77
2019-05-12T08:46:29.709Z,1022.73
2019-05-12T08:47:35.531Z,1022.74
2019-05-12T08:48:29.703Z,1022.68
2019-05-12T08:49:34.088Z,1022.65
2019-05-12T08:50:31.472Z,1022.76
2019-05-12T08:51:29.705Z,1022.73
2019-05-12T08:52:30.487Z,1022.79
2019-05-12T08:53:29.708Z,1022.69
2019-05-12T08:54:29.707Z,1022.67
2019-05-12T08:55:31.512Z,1022.63
2019-05-12T08:56:29.708Z,1022.65
2019-05-12T08:57:34.796Z,1022.69
2019-05-12T08:58:34.169Z,1022.63
2019-05-12T08:59:29.714Z,1022.65
2019-05-12T09:00:29.715Z,1022.70
2019-05-12T09:01:30.844Z,1022.70
2019-05-12T09:02:29.723Z,1022.68
2019-05-12T09:03:30.478Z,1022.64
2019-05-12T09:04:29.715Z,1022.63
2019-05-12T09:05:34.524Z,1022.69
2019-05-12T09:06:29.714Z,1022.71
2019-05-12T09:07:30.361Z,1022.71
2019-05-12T09:08:29.773Z,1022.69
2019-05-12T09:09:29.713Z,1022.66
2019-05-12T09:10:29.723Z,1022.78
2019-05-12T09:11:29.712Z,1022.75
2019-05-12T09:12:29.707Z,1022.75
2019-05-12T09:13:29.711Z,1022.69
2019-05-12T09:14:35.533Z,1022.70
2019-05-12T09:15:29.707Z,1022.64
2019-05-12T09:16:29.705Z,1022.74
2019-05-12T09:17:29.704Z,1022.71
2019-05-12T09:18:35.058Z,1022.73
2019-05-12T09:19:29.700Z,1022.75
2019-05-12T09:20:29.700Z,1022.74
2019-05-12T09:21:36.606Z,1022.69
2019-05-12T09:22:29.694Z,1022.68
2019-05-12T09:23:32.704Z,1022.72
2019-05-12T09:24:29.693Z,1022.71
2019-05-12T09:25:29.688Z,1022.67
2019-05-12T09:26:29.685Z,1022.72
2019-05-12T09:27:29.685Z,1022.78
2019-05-12T09:28:42.895Z,1022.76
2019-05-12T09:29:29.743Z,1022.80
2019-05-12T09:30:29.727Z,1022.76
2019-05-12T09:31:29.838Z,1022.79
2019-05-12T09:32:29.672Z,1022.79
2019-05-12T09:33:31.991Z,1022.71
2019-05-12T09:34:29.666Z,1022.72
2019-05-12T09:35:34.895Z,1022.72
2019-05-12T09:36:29.663Z,1022.76
2019-05-12T09:37:30.887Z,1022.76
2019-05-12T09:38:29.652Z,1022.75
2019-05-12T09:39:36.432Z,1022.73
2019-05-12T09:40:29.653Z,1022.71
2019-05-12T09:41:35.944Z,1022.76
2019-05-12T09:42:30.149Z,1022.74
2019-05-12T09:43:29.644Z,1022.76
2019-05-12T09:44:30.609Z,1022.77
2019-05-12T09:45:29.647Z,1022.80
2019-05-12T09:46:34.302Z,1022.77
2019-05-12T09:47:29.730Z,1022.77
2019-05-12T09:48:29.630Z,1022.86
2019-05-12T09:49:33.336Z,1022.85
2019-05-12T09:50:29.625Z,1022.83
2019-05-12T09:51:33.007Z,1022.81
2019-05-12T09:52:29.614Z,1022.83
2019-05-12T09:53:29.611Z,1022.81
2019-05-12T09:54:35.269Z,1022.78
2019-05-12T09:55:29.634Z,1022.78
2019-05-12T09:56:29.607Z,1022.81
2019-05-12T09:57:34.796Z,1022.76
2019-05-12T09:58:29.598Z,1022.77
2019-05-12T09:59:29.593Z,1022.81
2019-05-12T10:00:30.408Z,1022.78
2019-05-12T10:01:35.384Z,1022.80
2019-05-12T10:02:29.589Z,1022.79
2019-05-12T10:03:30.864Z,1022.81
2019-05-12T10:04:29.583Z,1022.82
2019-05-12T10:05:30.542Z,1022.82
2019-05-12T10:06:29.567Z,1022.84
2019-05-12T10:07:29.569Z,1022.87
2019-05-12T10:08:35.548Z,1022.79
2019-05-12T10:09:29.580Z,1022.86
2019-05-12T10:10:38.182Z,1022.87
2019-05-12T10:11:29.567Z,1022.88
2019-05-12T10:12:30.046Z,1022.86
2019-05-12T10:13:30.342Z,1022.85
2019-05-12T10:14:29.552Z,1022.85
2019-05-12T10:15:29.544Z,1022.91
2019-05-12T10:16:29.546Z,1022.79
2019-05-12T10:17:30.293Z,1022.89
2019-05-12T10:18:29.533Z,1022.76
2019-05-12T10:19:29.533Z,1022.87
2019-05-12T10:20:35.225Z,1022.86
2019-05-12T10:21:29.523Z,1022.82
2019-05-12T10:22:30.100Z,1022.83
2019-05-12T10:23:29.519Z,1022.85
2019-05-12T10:24:32.453Z,1022.83
2019-05-12T10:25:30.729Z,1022.87
2019-05-12T10:26:29.509Z,1022.90
2019-05-12T10:27:31.886Z,1022.80
2019-05-12T10:28:29.505Z,1022.71
2019-05-12T10:29:30.972Z,1022.83
2019-05-12T10:30:29.495Z,1022.83
2019-05-12T10:31:34.534Z,1022.76
2019-05-12T10:32:29.488Z,1022.94
2019-05-12T10:33:29.485Z,1022.95
2019-05-12T10:34:34.838Z,1022.95
2019-05-12T10:35:29.479Z,1022.94
2019-05-12T10:36:29.552Z,1022.95
2019-05-12T10:37:29.633Z,1022.95
2019-05-12T10:38:29.468Z,1022.97
2019-05-12T10:39:29.470Z,1023.00
2019-05-12T10:40:29.462Z,1023.03
2019-05-12T10:41:29.459Z,1022.97
2019-05-12T10:42:29.454Z,1022.97
2019-05-12T10:43:29.452Z,1022.95
2019-05-12T10:44:39.182Z,1022.98
2019-05-12T10:45:29.446Z,1023.04
2019-05-12T10:46:29.447Z,1023.05
2019-05-12T10:47:29.439Z,1023.10
2019-05-12T10:48:29.438Z,1023.05
2019-05-12T10:49:29.436Z,1023.10
2019-05-12T10:50:29.431Z,1023.13
2019-05-12T10:51:29.431Z,1023.12
2019-05-12T10:52:34.271Z,1023.06
2019-05-12T10:53:29.421Z,1023.03
2019-05-12T10:54:29.420Z,1023.15
2019-05-12T10:55:29.414Z,1023.14
2019-05-12T10:56:29.418Z,1023.11
2019-05-12T10:57:29.407Z,1023.03
2019-05-12T10:58:29.408Z,1023.09
2019-05-12T10:59:33.144Z,1023.07
2019-05-12T11:00:29.406Z,1023.00
2019-05-12T11:01:29.396Z,1023.05
2019-05-12T11:02:30.634Z,1023.14
2019-05-12T11:03:29.388Z,1023.12
2019-05-12T11:04:36.821Z,1023.15
2019-05-12T11:05:29.383Z,1023.11
2019-05-12T11:06:29.377Z,1023.17
2019-05-12T11:07:29.991Z,1023.12
2019-05-12T11:08:29.372Z,1023.11
2019-05-12T11:09:31.684Z,1023.13
2019-05-12T11:10:29.367Z,1023.13
2019-05-12T11:11:32.992Z,1023.12
2019-05-12T11:12:29.400Z,1023.15
2019-05-12T11:13:29.361Z,1023.04
2019-05-12T11:14:30.512Z,1023.14
2019-05-12T11:15:29.355Z,1023.21
2019-05-12T11:16:31.128Z,1023.11
2019-05-12T11:17:29.345Z,1023.17
2019-05-12T11:18:30.614Z,1023.17
2019-05-12T11:19:29.344Z,1023.23
2019-05-12T11:20:29.337Z,1023.25
2019-05-12T11:21:29.333Z,1023.26
2019-05-12T11:22:29.330Z,1023.34
2019-05-12T11:23:29.327Z,1023.29
2019-05-12T11:24:29.327Z,1023.26
2019-05-12T11:25:29.321Z,1023.28
2019-05-12T11:26:29.324Z,1023.25
2019-05-12T11:27:29.314Z,1023.23
2019-05-12T11:28:29.312Z,1023.30
2019-05-12T11:29:42.502Z,1023.18
2019-05-12T11:30:29.305Z,1023.31
2019-05-12T11:31:29.302Z,1023.33
2019-05-12T11:32:34.683Z,1023.30
2019-05-12T11:33:29.301Z,1023.31
2019-05-12T11:34:29.298Z,1023.30
2019-05-12T11:35:29.293Z,1023.21
2019-05-12T11:36:29.315Z,1023.29
2019-05-12T11:37:29.290Z,1023.32
2019-05-12T11:38:29.281Z,1023.33
2019-05-12T11:39:30.578Z,1023.31
2019-05-12T11:40:29.276Z,1023.28
2019-05-12T11:41:29.277Z,1023.16
2019-05-12T11:42:29.270Z,1023.31
2019-05-12T11:43:29.899Z,1023.29
2019-05-12T11:44:29.264Z,1023.31
2019-05-12T11:45:29.261Z,1023.34
2019-05-12T11:46:29.260Z,1023.36
2019-05-12T11:47:29.256Z,1023.37
2019-05-12T11:48:29.252Z,1023.37
2019-05-12T11:49:29.250Z,1023.36
2019-05-12T11:50:29.246Z,1023.38
2019-05-12T11:51:30.677Z,1023.34
2019-05-12T11:52:29.244Z,1023.38
2019-05-12T11:53:31.151Z,1023.39
2019-05-12T11:54:29.234Z,1023.39
2019-05-12T11:55:31.592Z,1023.40
2019-05-12T11:56:29.232Z,1023.42
2019-05-12T11:57:30.404Z,1023.43
2019-05-12T11:58:29.227Z,1023.43
2019-05-12T11:59:29.223Z,1023.52
2019-05-12T12:00:29.221Z,1023.43
2019-05-12T12:01:29.217Z,1023.44
2019-05-12T12:02:30.709Z,1023.49
2019-05-12T12:03:29.211Z,1023.55
2019-05-12T12:04:29.208Z,1023.57
2019-05-12T12:05:29.206Z,1023.61